OIIP METAR and TAF | Updated Today

OIIP METAR

Payam International Airport

Observation time: 51 min. ago

OIIP 291000Z 14004KT 9999 FEW040 SCT200 28/M04 Q1016 A3001

Need help? Read our tutorial on how to read METARs or read the parsed version below.

Payam International Airport (OIIP) METAR

  • Weather conditions on Sun, 29 May 2022 10:00:00 +0000 (51 min. ago):
  • Present conditions: Dry
  • Clouds: A few at 1219 meters; scattered at 6096 meters
  • Visibility: Greater than 10 km
  • Wind: 140 degrees at 4 knots
  • Temperature: 28 celsius
  • Dew point: -4 celsius
  • Pressure: 1016 millibars
  • Remarks: None


Useful to know...

OIIP TAF

Payam International Airport

TAF OIIP 290800Z 2909/2918 320008KT 7000 FEW040 SCT100 TEMPO 2910/2915 12020KT FEW035CB BKN100
Observation time: 2:51 hr. ago
Need help? Read our tutorial on how to read TAFs or read the parsed version below.

Parsed version of TAF for Payam International Airport (OIIP)

  • From 29 May at 09:00 UTC, to day 29 of the month at 18:00 UTC
  • Clouds: A few at 1219 meters; scattered at 3048 meters
  • Visibility: 7000 meters
  • Wind: 320 degrees at 8
  • Expected to arise temporarily, from 29 May at 10:00 UTC, to day 29 of the month at 15:00 UTC
  • Clouds: A few at 1067 meters, cumulonimbus; broken sky at 3048 meters
  • Wind: 120 degrees at 20